Time;durP1;ratioP1;P1;durP2;ratioP2;P2;SDS_P1;SDS_P2;PMS_P1;PMS_P2;Temp;Humidity;BMP_temperature;BMP_pressure;BME280_temperature;BME280_humidity;BME280_pressure;Samples;Min_cycle;Max_cycle;Signal;HPM_P1;HPM_P2
2023/04/24 00:02:47;;;;;;;2.17;1.80;;;;;;;10.20;58.48;98690.47;10322052;28;20253;-68
2023/04/24 00:07:52;;;;;;;3.67;2.00;;;;;;;10.08;57.83;98688.41;10329749;28;20319;-68
2023/04/24 00:12:54;;;;;;;3.67;2.30;;;;;;;11.26;56.41;98756.19;10330935;28;20583;-68
2023/04/24 00:17:55;;;;;;;2.73;2.27;;;;;;;12.13;54.94;98772.56;10330963;28;20662;-68
2023/04/24 00:22:57;;;;;;;3.60;1.90;;;;;;;12.24;53.78;98762.94;10329164;28;20264;-68
2023/04/24 00:27:59;;;;;;;2.23;2.03;;;;;;;12.57;53.38;98779.81;10340285;23;20240;-39
2023/04/24 00:33:00;;;;;;;2.23;2.00;;;;;;;11.40;56.18;98757.75;10338298;28;20875;-39
2023/04/24 00:38:02;;;;;;;2.20;2.00;;;;;;;11.01;56.39;98737.38;10337712;28;20355;-40
2023/04/24 00:43:04;;;;;;;1.97;1.70;;;;;;;12.30;54.64;98788.06;10328385;28;20238;-38
2023/04/24 00:48:06;;;;;;;3.17;1.87;;;;;;;9.75;58.30;98618.94;10330233;28;20265;-38
2023/04/24 00:53:08;;;;;;;2.47;2.27;;;;;;;10.64;57.69;98721.81;10332701;28;20236;-38
2023/04/24 00:58:10;;;;;;;2.03;1.93;;;;;;;10.67;57.22;98718.72;10340041;28;20238;-38
2023/04/24 01:03:13;;;;;;;2.43;2.23;;;;;;;11.75;55.94;98775.31;10333394;28;20509;-38
2023/04/24 01:08:16;;;;;;;2.00;1.90;;;;;;;10.80;57.09;98733.94;10333226;28;20246;-38
2023/04/24 01:13:19;;;;;;;2.13;1.93;;;;;;;10.96;56.55;98716.59;10332014;28;20242;-38
2023/04/24 01:18:21;;;;;;;1.80;1.60;;;;;;;12.09;55.02;98798.16;10336850;28;20203;-39
2023/04/24 01:23:23;;;;;;;2.13;2.00;;;;;;;11.18;55.92;98730.47;10327125;28;20244;-39
2023/04/24 01:28:25;;;;;;;2.30;2.07;;;;;;;12.81;53.87;98843.38;10331396;28;20230;-39
2023/04/24 01:33:27;;;;;;;2.20;2.10;;;;;;;11.16;56.11;98723.72;10335290;28;20242;-39
2023/04/24 01:38:29;;;;;;;2.33;1.80;;;;;;;12.48;54.24;98841.78;10328415;28;20237;-39
2023/04/24 01:43:31;;;;;;;2.47;2.03;;;;;;;12.73;53.85;98843.66;10328452;28;20229;-39
2023/04/24 01:48:33;;;;;;;2.60;2.27;;;;;;;11.23;56.74;98735.19;10327752;28;20703;-39
2023/04/24 01:53:35;;;;;;;3.27;2.80;;;;;;;10.99;57.82;98740.25;10324258;28;20223;-40
2023/04/24 01:58:37;;;;;;;2.10;2.00;;;;;;;10.74;57.37;98689.28;10329322;28;20228;-38
2023/04/24 02:03:39;;;;;;;2.33;2.13;;;;;;;10.51;58.42;98714.66;10324598;28;20296;-38
2023/04/24 02:08:41;;;;;;;2.63;2.43;;;;;;;11.83;55.50;98753.59;10331352;28;20711;-38
2023/04/24 02:13:43;;;;;;;2.20;2.00;;;;;;;10.91;56.73;98689.63;10329368;28;20226;-38
2023/04/24 02:18:44;;;;;;;2.80;1.80;;;;;;;12.00;56.15;98768.09;10329212;28;20244;-39
2023/04/24 02:23:46;;;;;;;2.37;2.17;;;;;;;10.82;58.54;98712.34;10325901;28;21158;-39
2023/04/24 02:28:48;;;;;;;2.30;2.07;;;;;;;11.56;57.15;98751.06;10323743;28;20276;-38
2023/04/24 02:33:50;;;;;;;3.87;2.10;;;;;;;12.31;55.02;98774.44;10329212;28;20234;-39
2023/04/24 02:38:51;;;;;;;2.80;1.90;;;;;;;12.51;56.55;98825.25;10328612;28;20245;-38
2023/04/24 02:43:53;;;;;;;3.77;2.70;;;;;;;11.79;57.22;98777.34;10325797;28;20241;-38
2023/04/24 02:48:55;;;;;;;2.67;2.47;;;;;;;10.75;60.45;98732.94;10333655;28;20247;-39
2023/04/24 02:53:56;;;;;;;3.30;2.40;;;;;;;11.28;57.36;98739.91;10325221;28;20240;-38
2023/04/24 02:58:58;;;;;;;2.10;2.00;;;;;;;11.22;57.80;98782.59;10328420;28;20672;-38
2023/04/24 03:04:00;;;;;;;2.13;2.03;;;;;;;10.99;57.42;98763.53;10322926;28;20236;-38
2023/04/24 03:09:03;;;;;;;2.10;1.83;;;;;;;10.75;57.45;98746.31;10323773;28;20237;-38
2023/04/24 03:14:05;;;;;;;3.50;2.27;;;;;;;12.10;55.72;98860.66;10325319;28;20257;-38
2023/04/24 03:19:06;;;;;;;3.43;2.40;;;;;;;10.61;56.01;98799.00;10323435;28;20340;-39
2023/04/24 03:24:09;;;;;;;2.77;2.57;;;;;;;11.72;53.40;98869.53;10325390;28;20236;-39
2023/04/24 03:29:10;;;;;;;2.57;2.37;;;;;;;11.88;52.75;98868.19;10329027;28;20230;-39
2023/04/24 03:34:12;;;;;;;2.70;2.50;;;;;;;12.33;52.24;98884.19;10326715;28;20234;-38
2023/04/24 03:39:14;;;;;;;2.57;2.37;;;;;;;11.91;51.87;98851.69;10329500;28;20245;-39
2023/04/24 03:44:16;;;;;;;2.50;2.30;;;;;;;12.06;51.76;98870.97;10324029;28;20707;-39
2023/04/24 03:49:17;;;;;;;2.67;2.47;;;;;;;12.85;49.94;98945.75;10333799;28;20238;-39
2023/04/24 03:54:19;;;;;;;3.97;2.30;;;;;;;12.10;50.92;98890.97;10327250;28;20537;-39
2023/04/24 03:59:21;;;;;;;3.50;2.70;;;;;;;11.25;51.72;98835.72;10336988;28;20229;-39
2023/04/24 04:04:23;;;;;;;3.10;2.80;;;;;;;11.55;50.74;98880.72;10328916;28;20236;-38
2023/04/24 04:09:25;;;;;;;2.77;2.53;;;;;;;11.41;50.30;98863.06;10338560;28;20633;-38
2023/04/24 04:14:27;;;;;;;4.10;3.10;;;;;;;12.00;49.48;98915.56;10331899;28;20268;-39
2023/04/24 04:19:29;;;;;;;3.60;3.20;;;;;;;11.62;50.47;98927.09;10331693;28;20237;-38
2023/04/24 04:24:30;;;;;;;2.83;2.63;;;;;;;11.22;50.65;98892.38;10331644;28;20237;-38
2023/04/24 04:29:32;;;;;;;2.97;2.77;;;;;;;11.36;52.38;98953.94;10330356;28;20541;-38
2023/04/24 04:34:34;;;;;;;2.67;2.47;;;;;;;12.16;50.41;98983.97;10327247;28;20237;-38
2023/04/24 04:39:36;;;;;;;2.77;2.30;;;;;;;11.67;51.18;98953.25;10327837;28;20252;-39
2023/04/24 04:44:38;;;;;;;2.90;2.70;;;;;;;11.71;50.70;98942.91;10330610;28;20433;-39
2023/04/24 04:49:40;;;;;;;2.43;2.27;;;;;;;11.52;50.92;98920.50;10328724;28;20763;-39
2023/04/24 04:54:43;;;;;;;7.43;3.00;;;;;;;12.09;49.95;98950.19;10322735;28;20222;-39
2023/04/24 04:59:44;;;;;;;3.80;3.37;;;;;;;10.85;51.79;98875.97;10328259;28;20241;-39
2023/04/24 05:04:46;;;;;;;3.63;3.23;;;;;;;11.76;50.36;98952.00;10332401;28;20465;-38
2023/04/24 05:09:48;;;;;;;7.77;3.10;;;;;;;11.57;50.59;98929.53;10327898;28;20241;-39
2023/04/24 05:14:50;;;;;;;2.97;2.67;;;;;;;11.05;51.10;98897.38;10328339;28;20230;-38
2023/04/24 05:19:52;;;;;;;2.50;2.40;;;;;;;11.02;52.17;98929.91;10329301;28;21119;-38
2023/04/24 05:24:53;;;;;;;2.90;2.60;;;;;;;11.78;51.63;98963.31;10335156;28;20721;-38
2023/04/24 05:29:55;;;;;;;2.83;2.57;;;;;;;11.28;52.33;98933.56;10304002;28;20230;-38
2023/04/24 05:34:57;;;;;;;4.30;2.83;;;;;;;10.19;53.93;98879.47;10283865;28;20241;-38
2023/04/24 05:39:58;;;;;;;3.03;2.80;;;;;;;11.61;52.17;98970.16;10293523;28;20245;-38
2023/04/24 05:45:00;;;;;;;3.80;3.07;;;;;;;11.09;52.04;98937.13;10292530;28;20230;-38
2023/04/24 05:50:02;;;;;;;3.67;2.63;;;;;;;12.10;50.93;99018.88;10326803;28;20248;-38
2023/04/24 05:55:05;;;;;;;4.00;2.90;;;;;;;10.92;51.66;98931.34;10324630;28;20233;-38
2023/04/24 06:00:08;;;;;;;3.37;3.07;;;;;;;11.50;51.33;99000.28;10329484;28;20720;-38
2023/04/24 06:05:09;;;;;;;3.20;2.90;;;;;;;12.01;50.79;99029.00;10330049;28;20230;-38
2023/04/24 06:10:11;;;;;;;3.20;3.00;;;;;;;11.57;51.27;99009.09;10323993;28;20284;-38
2023/04/24 06:15:13;;;;;;;3.53;3.07;;;;;;;12.08;50.65;99035.19;10329696;28;20229;-38
2023/04/24 06:20:14;;;;;;;3.70;3.20;;;;;;;11.07;51.97;98983.66;10326202;28;20240;-38
2023/04/24 06:25:16;;;;;;;3.53;3.23;;;;;;;11.43;51.54;99011.81;10322783;28;20241;-38
2023/04/24 06:30:18;;;;;;;7.77;3.30;;;;;;;11.70;51.04;99019.81;10323632;28;20265;-38
2023/04/24 06:35:20;;;;;;;4.17;3.60;;;;;;;11.62;50.67;99007.50;10328544;28;20230;-38
2023/04/24 06:40:22;;;;;;;3.67;3.00;;;;;;;11.66;51.50;99025.81;10319036;28;20245;-38
2023/04/24 06:45:24;;;;;;;3.03;2.83;;;;;;;9.94;53.39;98905.94;10324729;28;20697;-39
2023/04/24 06:50:26;;;;;;;4.03;3.60;;;;;;;11.05;51.79;99011.63;10323087;28;20236;-38
2023/04/24 06:55:28;;;;;;;3.40;3.10;;;;;;;12.33;49.55;99077.34;10323422;28;20260;-39
2023/04/24 07:00:29;;;;;;;3.80;3.37;;;;;;;11.73;49.65;99026.63;10321886;28;20236;-38
2023/04/24 07:05:33;;;;;;;3.17;2.87;;;;;;;12.42;47.74;99089.50;10323531;28;20312;-38
2023/04/24 07:10:35;;;;;;;3.83;2.53;;;;;;;12.77;47.49;99117.84;10320255;28;20230;-38
2023/04/24 07:15:37;;;;;;;3.87;2.30;;;;;;;10.97;48.37;98977.06;10325893;28;20233;-38
2023/04/24 07:20:39;;;;;;;2.60;2.40;;;;;;;11.59;47.45;99041.88;10321231;28;20704;-38
2023/04/24 07:25:41;;;;;;;2.63;2.43;;;;;;;11.32;47.84;99052.66;10332903;28;20265;-39
2023/04/24 07:30:42;;;;;;;3.90;2.63;;;;;;;11.32;49.34;99070.56;10331515;28;20237;-38
2023/04/24 07:35:44;;;;;;;2.70;2.50;;;;;;;9.90;50.39;98977.66;10326114;28;20620;-38
2023/04/24 07:40:46;;;;;;;2.87;2.60;;;;;;;10.25;50.52;99065.00;10331494;28;20236;-38
2023/04/24 07:45:50;;;;;;;3.00;2.80;;;;;;;9.59;51.47;98997.63;10335913;28;20237;-39
2023/04/24 07:50:53;;;;;;;2.73;2.53;;;;;;;11.04;49.12;99091.16;10325322;28;20261;-38
2023/04/24 07:55:56;;;;;;;2.63;2.40;;;;;;;10.94;48.88;99092.59;10328355;28;20217;-38
2023/04/24 08:00:57;;;;;;;2.90;2.57;;;;;;;11.60;48.70;99110.53;10327627;28;20244;-38
2023/04/24 08:05:59;;;;;;;2.90;2.57;;;;;;;10.22;51.45;99068.88;10329171;28;20259;-38
2023/04/24 08:11:01;;;;;;;3.40;3.10;;;;;;;11.06;50.70;99128.44;10330246;28;20248;-38
2023/04/24 08:16:03;;;;;;;2.83;2.63;;;;;;;10.60;52.18;99115.75;10329360;28;20257;-38
2023/04/24 08:21:05;;;;;;;3.30;2.60;;;;;;;11.69;50.48;99119.19;10336784;28;20234;-39
2023/04/24 08:26:07;;;;;;;5.43;3.50;;;;;;;11.17;51.29;99089.50;10330406;28;20230;-38
2023/04/24 08:31:09;;;;;;;3.20;2.90;;;;;;;12.05;50.80;99132.13;10336322;28;20329;-38
2023/04/24 08:36:10;;;;;;;3.00;2.77;;;;;;;12.44;50.23;99138.41;10329450;28;20230;-38
2023/04/24 08:41:14;;;;;;;6.53;4.17;;;;;;;11.98;50.48;99099.16;10327148;28;20244;-38
2023/04/24 08:46:16;;;;;;;4.70;3.23;;;;;;;11.52;49.56;99102.69;10327702;28;20230;-38
2023/04/24 08:51:20;;;;;;;4.13;3.50;;;;;;;11.40;48.13;99097.94;10328399;28;20244;-38
2023/04/24 08:56:23;;;;;;;4.17;2.90;;;;;;;11.85;47.91;99158.16;10323089;28;20656;-38
2023/04/24 09:01:25;;;;;;;5.23;3.73;;;;;;;12.21;47.61;99183.66;10285925;28;20235;-38
2023/04/24 09:06:27;;;;;;;5.77;3.87;;;;;;;12.61;46.49;99184.41;10285258;28;20235;-39
2023/04/24 09:11:32;;;;;;;4.37;3.97;;;;;;;11.76;47.27;99179.81;10283734;28;20248;-38
2023/04/24 09:16:34;;;;;;;5.80;3.33;;;;;;;11.98;46.64;99203.72;10296989;28;20241;-38
2023/04/24 09:21:37;;;;;;;4.00;3.60;;;;;;;11.93;45.86;99182.06;10331349;28;20249;-38
2023/04/24 09:26:39;;;;;;;6.23;3.83;;;;;;;11.73;45.06;99158.78;10320838;28;20241;-38
2023/04/24 09:31:40;;;;;;;4.50;3.50;;;;;;;10.87;46.96;99132.72;10328274;28;20237;-39
2023/04/24 09:36:43;;;;;;;4.53;3.77;;;;;;;12.47;45.53;99199.72;10326658;28;20241;-38
2023/04/24 09:41:59;;;;;;;5.50;4.27;;;;;;;11.87;46.13;99178.34;10327012;28;20294;-39
2023/04/24 09:47:01;;;;;;;4.53;3.53;;;;;;;11.52;46.08;99129.47;10306390;28;20360;-38
2023/04/24 09:52:10;;;;;;;4.50;4.10;;;;;;;12.49;45.92;99194.97;10302169;28;20236;-38
2023/04/24 09:57:14;;;;;;;2.83;2.57;;;;;;;11.77;46.18;99169.91;10302145;28;20213;-39
2023/04/24 10:02:20;;;;;;;11.43;3.40;;;;;;;12.47;45.63;99207.78;10305483;28;20225;-38
2023/04/24 10:07:25;;;;;;;3.97;3.20;;;;;;;12.57;45.64;99212.72;10300592;28;20233;-39
2023/04/24 10:12:28;;;;;;;3.33;2.87;;;;;;;11.95;46.07;99169.28;10302699;28;20229;-39
2023/04/24 10:17:31;;;;;;;3.80;3.40;;;;;;;12.27;46.01;99190.88;10298264;28;20552;-39
2023/04/24 10:22:33;;;;;;;4.00;3.60;;;;;;;12.50;45.80;99223.47;10297318;28;20229;-39
2023/04/24 10:27:36;;;;;;;4.03;3.43;;;;;;;13.03;44.40;99235.03;10297628;28;20230;-39
2023/04/24 10:32:37;;;;;;;6.00;3.57;;;;;;;10.95;46.91;99076.31;10299053;28;20240;-38
2023/04/24 10:37:48;;;;;;;6.00;4.27;;;;;;;12.10;45.25;99185.16;10300046;28;20241;-39
2023/04/24 10:42:53;;;;;;;4.17;3.40;;;;;;;12.08;45.79;99195.22;10295966;28;20762;-39
2023/04/24 10:48:01;;;;;;;5.70;3.80;;;;;;;11.17;45.86;99119.81;10303088;28;20229;-39
2023/04/24 10:53:11;;;;;;;5.83;3.60;;;;;;;10.66;46.02;99118.44;10301822;28;20316;-39
2023/04/24 10:58:16;;;;;;;6.07;4.00;;;;;;;11.68;45.46;99182.69;10295956;28;20218;-38
2023/04/24 11:06:35;;;;;;;4.90;3.87;;;;;;;7.26;54.69;99078.53;10516596;27;2019081;-69
2023/04/24 11:11:40;;;;;;;5.00;4.47;;;;;;;8.03;56.67;99231.97;10563036;28;20370;-68
2023/04/24 11:16:52;;;;;;;6.13;5.43;;;;;;;9.00;55.51;99278.28;10560171;28;20226;-67
2023/04/24 11:22:03;;;;;;;5.27;4.77;;;;;;;8.49;56.77;99239.00;10562231;28;20249;-68
2023/04/24 11:27:19;;;;;;;4.77;4.37;;;;;;;9.48;55.09;99315.16;10560694;28;20326;-68
2023/04/24 11:32:24;;;;;;;5.53;4.83;;;;;;;7.82;56.65;99162.53;10563517;28;20395;-69
2023/04/24 11:37:28;;;;;;;5.23;4.30;;;;;;;9.08;55.06;99290.66;10560613;28;20225;-68
2023/04/24 11:42:52;;;;;;;4.43;3.80;;;;;;;9.64;54.75;99317.59;10554677;28;20519;-68
2023/04/24 11:47:54;;;;;;;4.40;3.70;;;;;;;10.27;53.84;99331.16;10537207;28;20252;-69
2023/04/24 11:52:56;;;;;;;5.67;4.43;;;;;;;10.42;53.58;99301.66;10563294;28;20202;-68
2023/04/24 11:57:59;;;;;;;4.60;3.90;;;;;;;10.54;52.32;99328.69;10557706;28;20321;-69
2023/04/24 12:03:08;;;;;;;4.63;4.00;;;;;;;9.63;52.68;99310.59;10555627;28;20280;-69
2023/04/24 12:08:10;;;;;;;5.67;5.07;;;;;;;10.73;53.57;99339.72;10559331;28;20337;-69
2023/04/24 12:13:13;;;;;;;5.17;4.57;;;;;;;10.65;52.79;99319.31;10559713;28;20628;-69
2023/04/24 12:18:16;;;;;;;7.00;5.30;;;;;;;11.20;51.15;99355.06;10534523;28;20238;-68
2023/04/24 12:23:35;;;;;;;5.23;4.07;;;;;;;9.91;51.05;99308.03;10523773;28;20272;-68
2023/04/24 12:28:38;;;;;;;4.20;3.80;;;;;;;11.43;49.71;99361.94;10524402;22;20242;-38
2023/04/24 12:33:40;;;;;;;5.00;4.43;;;;;;;10.68;49.90;99318.88;10494183;28;20214;-40
2023/04/24 12:38:46;;;;;;;5.23;4.30;;;;;;;10.39;49.47;99322.63;10507605;22;20286;-67
2023/04/24 12:43:55;;;;;;;4.33;3.43;;;;;;;9.54;49.75;99279.69;10439373;28;20243;-68
2023/04/24 12:48:58;;;;;;;4.40;4.00;;;;;;;9.72;50.62;99313.97;10442190;28;20309;-68
2023/04/24 12:54:00;;;;;;;4.20;3.80;;;;;;;10.27;49.11;99328.47;10449144;28;20199;-68
2023/04/24 12:59:01;;;;;;;5.17;4.37;;;;;;;11.09;48.45;99350.25;10450779;28;20746;-67
2023/04/24 13:04:03;;;;;;;4.47;4.07;;;;;;;12.35;47.73;99408.81;10449094;28;20261;-68
2023/04/24 13:09:05;;;;;;;5.00;4.50;;;;;;;11.84;47.13;99357.56;10452402;28;20236;-68
2023/04/24 13:14:06;;;;;;;3.43;3.13;;;;;;;10.53;47.34;99294.94;10448736;28;20268;-68
2023/04/24 13:19:08;;;;;;;5.97;4.17;;;;;;;12.44;46.67;99369.16;10450127;28;20224;-66
2023/04/24 13:24:10;;;;;;;5.67;4.20;;;;;;;12.15;46.95;99327.50;10447291;28;20847;-68
2023/04/24 13:29:12;;;;;;;3.73;3.43;;;;;;;11.87;45.47;99312.41;10453757;28;20223;-69
2023/04/24 13:34:13;;;;;;;6.80;4.03;;;;;;;12.08;45.18;99323.97;10433562;28;20319;-68
2023/04/24 13:39:16;;;;;;;5.60;3.90;;;;;;;12.66;45.68;99360.94;10453376;28;20904;-68
2023/04/24 13:44:20;;;;;;;4.03;3.63;;;;;;;11.06;47.54;99270.34;10447993;28;20710;-67
2023/04/24 13:49:24;;;;;;;3.90;3.43;;;;;;;11.27;47.55;99288.09;10446217;28;20492;-66
2023/04/24 13:54:26;;;;;;;4.73;3.70;;;;;;;11.18;49.58;99281.28;10436839;28;20204;-66
2023/04/24 13:59:27;;;;;;;5.60;4.10;;;;;;;11.22;50.65;99253.06;10445865;28;20285;-66
2023/04/24 14:04:29;;;;;;;5.27;4.43;;;;;;;11.83;49.70;99273.63;10444290;28;20640;-67
2023/04/24 14:09:31;;;;;;;4.67;4.17;;;;;;;12.32;49.13;99295.72;10445782;28;20635;-67
2023/04/24 14:14:33;;;;;;;5.57;3.70;;;;;;;12.21;48.54;99290.97;10446494;28;20203;-67
2023/04/24 14:19:34;;;;;;;4.97;3.70;;;;;;;12.61;48.19;99299.81;10448001;28;20699;-67
2023/04/24 14:24:36;;;;;;;4.30;3.90;;;;;;;12.36;47.79;99256.69;10437239;28;20227;-67
2023/04/24 14:29:37;;;;;;;3.90;3.50;;;;;;;12.92;47.26;99307.19;10439222;28;20382;-67
2023/04/24 14:34:39;;;;;;;3.50;3.20;;;;;;;12.10;47.49;99244.16;10445197;28;20196;-66
2023/04/24 14:39:40;;;;;;;4.50;3.10;;;;;;;12.31;47.30;99261.84;10442658;28;20237;-66
2023/04/24 14:44:43;;;;;;;3.20;2.90;;;;;;;11.86;48.50;99232.19;10442195;28;20375;-66
2023/04/24 14:49:45;;;;;;;3.33;3.03;;;;;;;12.14;47.51;99230.09;10445130;28;20231;-66
2023/04/24 14:54:48;;;;;;;3.07;2.73;;;;;;;12.08;47.24;99212.16;10440163;28;20581;-67
2023/04/24 15:05:30;;;;;;;3.97;3.07;;;;;;;10.40;52.21;99262.75;10453022;27;21098;-68
2023/04/24 15:10:33;;;;;;;5.63;3.67;;;;;;;10.17;51.04;99229.06;10405465;28;20230;-68
2023/04/24 15:15:34;;;;;;;3.77;3.47;;;;;;;10.75;49.50;99236.84;10413714;28;20501;-68
2023/04/24 15:20:38;;;;;;;3.63;3.33;;;;;;;10.45;49.55;99244.28;10409264;28;20212;-68
2023/04/24 15:25:40;;;;;;;3.30;2.93;;;;;;;10.99;49.06;99264.94;10406951;28;20231;-68
2023/04/24 15:30:41;;;;;;;3.20;2.90;;;;;;;11.21;48.46;99264.81;10411421;28;20219;-68
2023/04/24 15:35:43;;;;;;;4.17;3.43;;;;;;;11.87;47.85;99285.59;10403701;28;20456;-68
2023/04/24 15:40:45;;;;;;;4.67;3.10;;;;;;;11.10;48.59;99252.81;10407737;28;20220;-68
2023/04/24 15:45:46;;;;;;;3.20;2.60;;;;;;;10.44;49.32;99221.22;10408395;28;20419;-68
2023/04/24 15:50:48;;;;;;;3.90;3.50;;;;;;;10.51;48.63;99204.19;10404717;28;20512;-68
2023/04/24 15:55:51;;;;;;;6.50;3.93;;;;;;;10.91;48.14;99222.28;10414548;28;20437;-66
2023/04/24 16:00:53;;;;;;;4.70;3.90;;;;;;;12.49;46.99;99315.72;10404566;28;20516;-66
2023/04/24 16:05:54;;;;;;;5.37;4.00;;;;;;;11.86;46.94;99230.34;10402487;28;20227;-66
2023/04/24 16:10:56;;;;;;;4.27;3.10;;;;;;;10.57;47.69;99165.09;10402934;28;20207;-66
2023/04/24 16:15:58;;;;;;;3.50;3.20;;;;;;;11.22;47.39;99235.16;10387568;28;20238;-66
2023/04/24 16:20:59;;;;;;;3.70;3.40;;;;;;;9.68;51.16;99133.72;10376251;28;20622;-68
2023/04/24 16:26:01;;;;;;;4.23;3.77;;;;;;;10.29;52.35;99221.31;10377015;28;20242;-66
2023/04/24 16:31:03;;;;;;;3.80;3.47;;;;;;;12.03;49.88;99267.44;10373521;28;20205;-66
2023/04/24 16:36:05;;;;;;;5.03;4.33;;;;;;;11.32;50.18;99231.25;10368102;28;20345;-66
2023/04/24 16:41:08;;;;;;;3.63;3.30;;;;;;;10.66;51.04;99222.78;10377140;28;20229;-66
2023/04/24 16:46:10;;;;;;;4.27;3.83;;;;;;;10.16;51.69;99179.31;10376082;28;20225;-66
2023/04/24 16:51:12;;;;;;;4.17;3.40;;;;;;;10.89;51.75;99184.19;10386925;28;20380;-66
2023/04/24 16:56:14;;;;;;;4.37;3.97;;;;;;;9.58;56.60;99155.41;10383251;28;20244;-68
2023/04/24 17:01:16;;;;;;;4.53;4.00;;;;;;;9.51;55.24;99160.69;10373232;28;20229;-67
2023/04/24 17:06:17;;;;;;;4.57;3.70;;;;;;;9.84;54.71;99189.56;10376531;28;20750;-68
2023/04/24 17:11:19;;;;;;;4.67;4.07;;;;;;;9.67;53.87;99181.00;10372616;28;20208;-68
2023/04/24 17:16:21;;;;;;;3.57;3.27;;;;;;;10.48;51.62;99212.59;10379291;28;20537;-68
2023/04/24 17:21:23;;;;;;;4.53;3.93;;;;;;;8.73;56.52;99090.34;10378093;28;20618;-67
2023/04/24 17:26:25;;;;;;;5.80;4.40;;;;;;;8.53;58.37;99098.94;10370115;28;20231;-67
2023/04/24 17:31:27;;;;;;;6.43;4.20;;;;;;;9.64;55.98;99213.44;10376857;28;20502;-67
2023/04/24 17:36:29;;;;;;;3.70;3.30;;;;;;;11.23;51.68;99254.72;10369902;28;20687;-67
2023/04/24 17:41:30;;;;;;;5.73;3.93;;;;;;;10.76;50.11;99210.91;10376176;28;20730;-67
2023/04/24 17:46:32;;;;;;;4.20;3.80;;;;;;;10.60;49.75;99241.47;10380043;28;20524;-68
2023/04/24 17:51:33;;;;;;;3.70;3.40;;;;;;;9.75;51.38;99191.53;10379235;28;20283;-68
2023/04/24 17:56:35;;;;;;;4.00;3.60;;;;;;;9.78;53.67;99223.19;10376814;28;20525;-68
2023/04/24 18:01:37;;;;;;;3.83;3.43;;;;;;;11.92;50.64;99291.16;10372019;28;20327;-68
2023/04/24 18:06:38;;;;;;;4.50;4.10;;;;;;;12.87;49.18;99341.06;10375858;28;20236;-68
2023/04/24 18:11:41;;;;;;;6.67;4.80;;;;;;;10.76;50.99;99235.81;10374112;28;20200;-68
2023/04/24 18:16:43;;;;;;;5.47;4.60;;;;;;;11.71;49.17;99264.53;10381082;28;20224;-69
2023/04/24 18:21:44;;;;;;;7.70;4.83;;;;;;;11.81;49.11;99276.53;10375346;28;20236;-66
2023/04/24 18:26:46;;;;;;;4.10;3.70;;;;;;;11.03;47.86;99271.53;10369173;28;20267;-66
2023/04/24 18:31:48;;;;;;;4.73;3.50;;;;;;;9.89;48.90;99232.56;10380625;28;20870;-69
2023/04/24 18:36:50;;;;;;;5.43;3.90;;;;;;;9.77;53.22;99242.94;10374044;28;20233;-68
2023/04/24 18:41:51;;;;;;;5.63;4.00;;;;;;;12.81;48.59;99358.84;10367430;28;20242;-68
2023/04/24 18:46:53;;;;;;;5.03;3.47;;;;;;;10.00;50.67;99203.66;10374839;28;20698;-68
2023/04/24 18:51:55;;;;;;;4.40;4.00;;;;;;;10.78;50.50;99298.00;10371774;28;20645;-66
2023/04/24 18:56:56;;;;;;;6.30;5.17;;;;;;;11.42;48.81;99272.72;10372567;28;20232;-66
2023/04/24 19:01:58;;;;;;;4.07;3.60;;;;;;;10.86;50.76;99281.75;10374562;28;20293;-66
2023/04/24 19:06:59;;;;;;;5.70;4.60;;;;;;;11.11;50.15;99304.53;10373313;28;20224;-66
2023/04/24 19:12:01;;;;;;;4.83;4.33;;;;;;;9.36;53.98;99214.19;10369447;28;20205;-66
2023/04/24 19:17:03;;;;;;;4.90;4.07;;;;;;;9.40;55.52;99268.06;10376418;28;20228;-68
2023/04/24 19:22:06;;;;;;;4.67;4.20;;;;;;;10.95;52.70;99336.00;10370906;28;20522;-68
2023/04/24 19:27:08;;;;;;;5.43;3.97;;;;;;;10.30;53.20;99336.13;10366059;28;20704;-68
2023/04/24 19:32:09;;;;;;;5.37;4.03;;;;;;;10.76;53.02;99347.41;10377249;28;20331;-67
2023/04/24 19:37:12;;;;;;;4.50;3.73;;;;;;;12.10;50.16;99373.69;10381833;28;20797;-67
2023/04/24 19:42:13;;;;;;;6.23;4.70;;;;;;;11.71;50.24;99340.44;10361621;28;20348;-67
2023/04/24 19:47:15;;;;;;;5.50;4.50;;;;;;;12.40;49.84;99386.72;10367768;28;20387;-68
2023/04/24 19:52:16;;;;;;;4.80;4.00;;;;;;;10.82;51.50;99304.59;10381904;28;20220;-68
2023/04/24 19:57:18;;;;;;;4.33;3.93;;;;;;;10.65;52.08;99311.28;10379792;28;20232;-68
2023/04/24 20:02:20;;;;;;;3.90;3.60;;;;;;;9.66;53.62;99258.66;10384599;28;20443;-68
2023/04/24 20:07:21;;;;;;;4.67;4.23;;;;;;;10.87;51.34;99312.88;10378543;28;20523;-68
2023/04/24 20:12:23;;;;;;;4.30;3.90;;;;;;;10.08;52.70;99286.38;10375254;28;20212;-68
2023/04/24 20:17:25;;;;;;;4.27;3.83;;;;;;;11.65;49.97;99335.88;10380488;28;20442;-68
2023/04/24 20:22:26;;;;;;;4.07;3.70;;;;;;;11.94;49.94;99358.00;10387771;28;20517;-68
2023/04/24 20:27:29;;;;;;;3.83;3.40;;;;;;;12.47;48.64;99376.84;10375061;28;20463;-68
2023/04/24 20:32:30;;;;;;;4.70;3.67;;;;;;;12.88;48.42;99405.28;10380178;28;20355;-68
2023/04/24 20:37:32;;;;;;;5.37;4.27;;;;;;;12.86;48.24;99383.19;10385402;28;20434;-67
2023/04/24 20:42:35;;;;;;;5.33;4.17;;;;;;;11.54;50.10;99274.78;10373672;28;20474;-68
2023/04/24 20:47:37;;;;;;;4.03;3.63;;;;;;;11.28;51.55;99326.44;10382096;28;20232;-68
2023/04/24 20:52:38;;;;;;;3.70;3.40;;;;;;;11.44;51.10;99296.63;10377574;28;20369;-68
2023/04/24 20:57:40;;;;;;;5.73;3.60;;;;;;;9.85;54.14;99227.81;10375065;28;20217;-67
2023/04/24 21:02:42;;;;;;;4.03;3.60;;;;;;;9.86;54.11;99266.88;10373257;28;20275;-67
2023/04/24 21:07:43;;;;;;;3.80;3.40;;;;;;;9.26;54.36;99202.16;10383048;28;20228;-67
2023/04/24 21:12:45;;;;;;;3.57;3.27;;;;;;;8.91;52.44;99184.16;10364238;28;20598;-68
2023/04/24 21:17:47;;;;;;;2.93;2.73;;;;;;;10.47;50.51;99317.13;10378632;28;20251;-68
2023/04/24 21:22:48;;;;;;;5.87;3.80;;;;;;;9.69;50.95;99276.97;10367721;28;20228;-67
2023/04/24 21:27:50;;;;;;;4.13;2.90;;;;;;;10.10;50.45;99293.19;10383354;28;20242;-66
2023/04/24 21:32:52;;;;;;;3.40;3.10;;;;;;;10.25;49.68;99295.78;10376158;28;20215;-66
2023/04/24 21:37:53;;;;;;;3.83;3.47;;;;;;;8.91;51.53;99191.31;10374127;28;20231;-66
2023/04/24 21:42:55;;;;;;;3.73;3.37;;;;;;;9.45;50.78;99249.63;10370338;28;20534;-68
2023/04/24 21:47:58;;;;;;;3.50;3.20;;;;;;;9.93;50.36;99295.31;10385544;28;20251;-65
2023/04/24 21:53:00;;;;;;;4.27;3.40;;;;;;;9.29;51.48;99244.50;10364791;28;20354;-68
2023/04/24 21:58:01;;;;;;;4.27;3.63;;;;;;;8.15;52.75;99133.75;10379414;28;20295;-68
2023/04/24 22:03:03;;;;;;;4.37;3.83;;;;;;;7.46;56.04;99096.63;10373301;28;20236;-68
2023/04/24 22:08:06;;;;;;;5.57;4.47;;;;;;;8.87;53.17;99262.91;10380784;28;20228;-68
2023/04/24 22:13:07;;;;;;;4.87;3.87;;;;;;;8.71;53.01;99237.25;10364095;28;20205;-68
2023/04/24 22:18:10;;;;;;;4.37;3.90;;;;;;;8.43;53.23;99203.22;10381055;28;20281;-66
2023/04/24 22:23:12;;;;;;;6.87;3.67;;;;;;;8.69;52.52;99243.75;10375897;28;20229;-65
2023/04/24 22:28:13;;;;;;;5.13;3.83;;;;;;;9.06;52.91;99282.03;10379312;28;20525;-68
2023/04/24 22:33:15;;;;;;;4.60;3.90;;;;;;;8.60;53.13;99238.50;10375488;28;20607;-65
2023/04/24 22:38:17;;;;;;;5.07;4.00;;;;;;;9.00;52.05;99255.06;10375402;28;20232;-66
2023/04/24 22:43:18;;;;;;;4.53;4.00;;;;;;;10.54;49.95;99339.38;10378241;28;20219;-68
2023/04/24 22:48:20;;;;;;;6.47;4.57;;;;;;;11.00;48.83;99333.53;10375944;28;21064;-68
2023/04/24 22:53:22;;;;;;;6.33;5.00;;;;;;;10.72;49.07;99312.13;10355213;28;20798;-65
2023/04/24 22:58:24;;;;;;;9.27;5.17;;;;;;;10.70;49.07;99290.13;10371901;28;20237;-68
2023/04/24 23:03:25;;;;;;;8.53;5.57;;;;;;;10.42;49.50;99272.22;10368339;28;20725;-65
2023/04/24 23:08:29;;;;;;;7.83;5.53;;;;;;;11.05;48.79;99323.06;10370685;28;20240;-66
2023/04/24 23:13:31;;;;;;;7.67;5.97;;;;;;;10.58;49.56;99300.53;10369238;28;20205;-68
2023/04/24 23:18:32;;;;;;;5.27;4.13;;;;;;;9.55;50.54;99243.94;10366980;28;20352;-68
2023/04/24 23:23:34;;;;;;;5.13;4.00;;;;;;;9.48;50.96;99270.59;10377682;28;20509;-68
2023/04/24 23:28:38;;;;;;;4.07;3.77;;;;;;;10.77;49.28;99316.94;10381695;28;20740;-65
2023/04/24 23:33:39;;;;;;;5.70;4.10;;;;;;;9.54;50.88;99264.50;10366584;28;20563;-66
2023/04/24 23:38:42;;;;;;;5.77;4.20;;;;;;;9.66;50.97;99264.00;10372949;28;20229;-69